Huvudsida
METAR-TAF:

METAR-TAF

Flygplatser :

Grand Turk, Turks- och Caicosöarna

latitud: 21-26-40N, longitud: 071-08-32W, höjd: 4 m

METAR: saknas

Tid: 20:10 (00:10 UTC)

Väderprognos

Denna rapport gjordes för 2 timmar och 25 minuter sedan, klockan 21:45 UTC
Prognos gäller från 22 kl. 00 UTC till 22 kl. 24 UTC
Vind 12 kt från ost/sydost
Sikt 10 km eller mer
Spridda moln på en höjd av 2000 ft
Brutna moln på en höjd av 20000 ft
Sannolikhet 30% :
Temporärt
från 22 kl. 02 UTC till 22 kl. 06 UTC
Sikt: 8000 m
Brutna moln på en höjd av 1800 ft
regnskurar

TAF: MBGT 212145Z 2200/2224 12012KT 9999 SCT020 BKN200 PROB30 TEMPO 2202/2206 8000 SHRA BKN018

Aktuella väderrapporter och prognoser från 4000 flygplatser (METAR- och TAF-rapporter).

De tillgängliga stationerna syns som gula och röda prickar på kartan.

För musen över prickarna för att se namnen på stationerna.

Klicka sedan för att få väderrapporter och prognoser.

För att ändra kartan: Klicka på de gröna knapparna med ett svart kors på för att zooma in; den gröna knappen med ett streck på för att zooma ut; eller på de gröna pilarna för angränsande kartor.


METAR-TAF: